Overview Statistics Trail Chart Weather Telemetry Raw packets
 

This is the latest recevied weather packets stored in our database for station/object HS3MXC-2. If no packets are shown the sender has not sent any weather packets the latest 10 day(s).

<< 47 48 49 50 51 52 53 >>
Time Temp. Humidity Pressure Rain* Wind** Luminosity Snow
1777283025 27.22° C 38% 991.3 hPa - - - -
1777282718 27.22° C 38% 991.4 hPa - - - -
1777282105 27.22° C 37% 991.7 hPa - - - -
1777281795 26.67° C 37% 991.6 hPa - - - -
1777281486 26.67° C 37% 991.6 hPa - - - -
1777281178 26.11° C 38% 991.6 hPa - - - -
1777280564 23.89° C 42% 992 hPa - - - -
1777280255 23.89° C 42% 991.7 hPa - - - -
1777279947 24.44° C 43% 991.5 hPa - - - -
1777279636 25° C 43% 991.4 hPa - - - -
1777279330 24.44° C 43% 991.5 hPa - - - -
1777279023 24.44° C 43% 991.5 hPa - - - -
1777278716 24.44° C 43% 991.6 hPa - - - -
1777278409 25° C 43% 991.6 hPa - - - -
1777278099 25° C 44% 991.6 hPa - - - -
1777277784 25° C 44% 991.5 hPa - - - -
1777277478 25.56° C 44% 991.3 hPa - - - -
1777277171 25° C 44% 991.5 hPa - - - -
1777276864 25° C 44% 991.6 hPa - - - -
1777276557 25° C 43% 991.6 hPa - - - -
1777276249 25° C 43% 991.7 hPa - - - -
1777275942 25° C 43% 991.7 hPa - - - -
1777275623 25° C 43% 991.8 hPa - - - -
1777275316 25° C 43% 992 hPa - - - -
1777275007 25° C 43% 991.9 hPa - - - -

* Rain since midnight (hover to see other rain measurements)
** Current wind speed in m/s (hover to see current wind gust speed)